sensor_id;sensor_type;location;lat;lon;timestamp;P1;durP1;ratioP1;P2;durP2;ratioP2
72974;SDS011;74127;54.228;37.632;2023-11-19T00:03:25;6.7;;;6.2;;
72974;SDS011;74127;54.228;37.632;2023-11-19T00:07:24;6.7;;;6.2;;
72974;SDS011;74127;54.228;37.632;2023-11-19T00:11:24;8.5;;;7.8;;
72974;SDS011;74127;54.228;37.632;2023-11-19T00:21:58;7.2;;;6.7;;
72974;SDS011;74127;54.228;37.632;2023-11-19T00:25:58;9.3;;;8.7;;
72974;SDS011;74127;54.228;37.632;2023-11-19T00:29:58;6.3;;;5.9;;
72974;SDS011;74127;54.228;37.632;2023-11-19T00:33:38;7.2;;;6.6;;
72974;SDS011;74127;54.228;37.632;2023-11-19T00:37:38;7.2;;;6.6;;
72974;SDS011;74127;54.228;37.632;2023-11-19T00:41:38;6.4;;;6;;
72974;SDS011;74127;54.228;37.632;2023-11-19T00:48:43;7.2;;;6.6;;
72974;SDS011;74127;54.228;37.632;2023-11-19T00:52:42;7.2;;;6.6;;
72974;SDS011;74127;54.228;37.632;2023-11-19T00:56:42;6.1;;;5.7;;
72974;SDS011;74127;54.228;37.632;2023-11-19T01:06:41;8.7;;;8.1;;
72974;SDS011;74127;54.228;37.632;2023-11-19T01:10:41;6.2;;;5.8;;
72974;SDS011;74127;54.228;37.632;2023-11-19T01:14:41;6.7;;;6.2;;
72974;SDS011;74127;54.228;37.632;2023-11-19T01:22:40;6.8;;;6.3;;
72974;SDS011;74127;54.228;37.632;2023-11-19T01:26:39;5.8;;;5.5;;
72974;SDS011;74127;54.228;37.632;2023-11-19T01:30:39;6.4;;;5.9;;
72974;SDS011;74127;54.228;37.632;2023-11-19T01:37:37;6.2;;;5.8;;
72974;SDS011;74127;54.228;37.632;2023-11-19T01:41:37;7.2;;;6.7;;
72974;SDS011;74127;54.228;37.632;2023-11-19T01:45:39;9.9;;;9.3;;
72974;SDS011;74127;54.228;37.632;2023-11-19T01:49:48;5.7;;;5.4;;
72974;SDS011;74127;54.228;37.632;2023-11-19T01:53:49;5.7;;;5.4;;
72974;SDS011;74127;54.228;37.632;2023-11-19T01:57:49;6.9;;;6.4;;
72974;SDS011;74127;54.228;37.632;2023-11-19T02:05:16;6.8;;;6.2;;
72974;SDS011;74127;54.228;37.632;2023-11-19T02:09:15;6.2;;;5.8;;
72974;SDS011;74127;54.228;37.632;2023-11-19T02:13:15;6.2;;;5.8;;
72974;SDS011;74127;54.228;37.632;2023-11-19T02:19:29;7;;;6.5;;
72974;SDS011;74127;54.228;37.632;2023-11-19T02:23:29;7;;;6.5;;
72974;SDS011;74127;54.228;37.632;2023-11-19T02:31:28;5.7;;;5.4;;
72974;SDS011;74127;54.228;37.632;2023-11-19T02:38:04;5.8;;;5.5;;
72974;SDS011;74127;54.228;37.632;2023-11-19T02:42:04;6.1;;;5.7;;
72974;SDS011;74127;54.228;37.632;2023-11-19T02:46:04;6.1;;;5.8;;
72974;SDS011;74127;54.228;37.632;2023-11-19T02:53:34;7;;;6.6;;
72974;SDS011;74127;54.228;37.632;2023-11-19T02:57:34;6.6;;;6.2;;
72974;SDS011;74127;54.228;37.632;2023-11-19T03:01:34;6.2;;;5.9;;
72974;SDS011;74127;54.228;37.632;2023-11-19T03:04:56;6.5;;;6.1;;
72974;SDS011;74127;54.228;37.632;2023-11-19T03:08:56;6.5;;;6.1;;
72974;SDS011;74127;54.228;37.632;2023-11-19T03:12:56;7.4;;;6.9;;
72974;SDS011;74127;54.228;37.632;2023-11-19T03:16:56;7.4;;;6.9;;
72974;SDS011;74127;54.228;37.632;2023-11-19T03:20:38;6.2;;;5.8;;
72974;SDS011;74127;54.228;37.632;2023-11-19T03:24:37;6.2;;;5.8;;
72974;SDS011;74127;54.228;37.632;2023-11-19T03:28:37;7;;;6.6;;
72974;SDS011;74127;54.228;37.632;2023-11-19T03:35:54;7;;;6.5;;
72974;SDS011;74127;54.228;37.632;2023-11-19T03:39:54;7;;;6.5;;
72974;SDS011;74127;54.228;37.632;2023-11-19T03:43:54;6.8;;;6.4;;
72974;SDS011;74127;54.228;37.632;2023-11-19T03:51:15;7;;;6.6;;
72974;SDS011;74127;54.228;37.632;2023-11-19T03:55:15;7;;;6.6;;
72974;SDS011;74127;54.228;37.632;2023-11-19T03:59:15;7.2;;;6.7;;
72974;SDS011;74127;54.228;37.632;2023-11-19T04:05:32;6.2;;;5.8;;
72974;SDS011;74127;54.228;37.632;2023-11-19T04:09:32;6.2;;;5.8;;
72974;SDS011;74127;54.228;37.632;2023-11-19T04:13:32;6.7;;;6.3;;
72974;SDS011;74127;54.228;37.632;2023-11-19T04:17:32;6.3;;;5.9;;
72974;SDS011;74127;54.228;37.632;2023-11-19T04:24:25;6.7;;;6.3;;
72974;SDS011;74127;54.228;37.632;2023-11-19T04:28:25;6.8;;;6.4;;
72974;SDS011;74127;54.228;37.632;2023-11-19T04:32:25;6.5;;;6.1;;
72974;SDS011;74127;54.228;37.632;2023-11-19T04:39:09;6.4;;;6;;
72974;SDS011;74127;54.228;37.632;2023-11-19T04:43:09;5.5;;;5.2;;
72974;SDS011;74127;54.228;37.632;2023-11-19T04:47:09;7;;;6.6;;
72974;SDS011;74127;54.228;37.632;2023-11-19T04:51:56;6.5;;;6.1;;
72974;SDS011;74127;54.228;37.632;2023-11-19T04:55:55;6.4;;;6;;
72974;SDS011;74127;54.228;37.632;2023-11-19T04:59:55;6.4;;;6;;
72974;SDS011;74127;54.228;37.632;2023-11-19T05:09:34;10;;;9.3;;
72974;SDS011;74127;54.228;37.632;2023-11-19T05:13:34;7.1;;;6.7;;
72974;SDS011;74127;54.228;37.632;2023-11-19T05:17:34;7.4;;;7;;
72974;SDS011;74127;54.228;37.632;2023-11-19T05:24:52;7.5;;;7.1;;
72974;SDS011;74127;54.228;37.632;2023-11-19T05:28:52;6.5;;;6.1;;
72974;SDS011;74127;54.228;37.632;2023-11-19T05:32:52;6.9;;;6.5;;
72974;SDS011;74127;54.228;37.632;2023-11-19T05:36:22;6.8;;;6.4;;
72974;SDS011;74127;54.228;37.632;2023-11-19T05:40:22;6.8;;;6.4;;
72974;SDS011;74127;54.228;37.632;2023-11-19T05:44:22;7.8;;;7.4;;
72974;SDS011;74127;54.228;37.632;2023-11-19T05:48:22;8;;;7.5;;
72974;SDS011;74127;54.228;37.632;2023-11-19T05:55:07;7.8;;;7.3;;
72974;SDS011;74127;54.228;37.632;2023-11-19T05:59:06;7.7;;;7.2;;
72974;SDS011;74127;54.228;37.632;2023-11-19T06:03:07;6.4;;;6;;
72974;SDS011;74127;54.228;37.632;2023-11-19T06:10:27;7.8;;;7.2;;
72974;SDS011;74127;54.228;37.632;2023-11-19T06:14:27;6.7;;;6.3;;
72974;SDS011;74127;54.228;37.632;2023-11-19T06:18:27;8.3;;;7.4;;
72974;SDS011;74127;54.228;37.632;2023-11-19T06:25:32;9.4;;;8.7;;
72974;SDS011;74127;54.228;37.632;2023-11-19T06:29:32;11.6;;;10.5;;
72974;SDS011;74127;54.228;37.632;2023-11-19T06:33:32;9.4;;;8.5;;
72974;SDS011;74127;54.228;37.632;2023-11-19T06:38:00;8.3;;;7.8;;
72974;SDS011;74127;54.228;37.632;2023-11-19T06:42:00;10.3;;;9;;
72974;SDS011;74127;54.228;37.632;2023-11-19T06:46:00;10.3;;;9;;
72974;SDS011;74127;54.228;37.632;2023-11-19T06:52:40;10.3;;;9.2;;
72974;SDS011;74127;54.228;37.632;2023-11-19T06:56:39;10.3;;;9.2;;
72974;SDS011;74127;54.228;37.632;2023-11-19T07:00:39;16.4;;;13;;
72974;SDS011;74127;54.228;37.632;2023-11-19T07:04:39;10.1;;;9.4;;
72974;SDS011;74127;54.228;37.632;2023-11-19T07:07:09;9.6;;;8.1;;
72974;SDS011;74127;54.228;37.632;2023-11-19T07:11:09;9.6;;;8.1;;
72974;SDS011;74127;54.228;37.632;2023-11-19T07:15:09;13.1;;;11.9;;
72974;SDS011;74127;54.228;37.632;2023-11-19T07:19:09;9.9;;;8.9;;
72974;SDS011;74127;54.228;37.632;2023-11-19T07:26:12;11.7;;;9.5;;
72974;SDS011;74127;54.228;37.632;2023-11-19T07:30:12;9.2;;;8.4;;
72974;SDS011;74127;54.228;37.632;2023-11-19T07:34:12;10;;;9.2;;
72974;SDS011;74127;54.228;37.632;2023-11-19T07:38:34;8.6;;;8.1;;
72974;SDS011;74127;54.228;37.632;2023-11-19T07:42:33;8.5;;;7.8;;
72974;SDS011;74127;54.228;37.632;2023-11-19T07:46:33;8.5;;;7.8;;
72974;SDS011;74127;54.228;37.632;2023-11-19T07:52:55;9.8;;;9.2;;
72974;SDS011;74127;54.228;37.632;2023-11-19T07:56:55;9.8;;;9.2;;
72974;SDS011;74127;54.228;37.632;2023-11-19T08:00:55;11.1;;;10.4;;
72974;SDS011;74127;54.228;37.632;2023-11-19T08:04:55;10.5;;;9.9;;
72974;SDS011;74127;54.228;37.632;2023-11-19T08:08:01;11.5;;;10.9;;
72974;SDS011;74127;54.228;37.632;2023-11-19T08:12:01;11.5;;;10.9;;
72974;SDS011;74127;54.228;37.632;2023-11-19T08:16:01;11.7;;;11.1;;
72974;SDS011;74127;54.228;37.632;2023-11-19T08:20:01;14.6;;;13.8;;
72974;SDS011;74127;54.228;37.632;2023-11-19T08:23:06;13.4;;;12.5;;
72974;SDS011;74127;54.228;37.632;2023-11-19T08:27:05;13.4;;;12.5;;
72974;SDS011;74127;54.228;37.632;2023-11-19T08:31:06;12.1;;;11.5;;
72974;SDS011;74127;54.228;37.632;2023-11-19T08:35:06;13.4;;;12.7;;
72974;SDS011;74127;54.228;37.632;2023-11-19T08:39:38;13.3;;;12.6;;
72974;SDS011;74127;54.228;37.632;2023-11-19T08:43:38;13.1;;;12.3;;
72974;SDS011;74127;54.228;37.632;2023-11-19T08:47:38;13.1;;;12.3;;
72974;SDS011;74127;54.228;37.632;2023-11-19T08:53:17;12.2;;;11.6;;
72974;SDS011;74127;54.228;37.632;2023-11-19T08:57:17;12.2;;;11.6;;
72974;SDS011;74127;54.228;37.632;2023-11-19T09:01:17;13.7;;;12.9;;
72974;SDS011;74127;54.228;37.632;2023-11-19T09:05:17;18.8;;;12.6;;
72974;SDS011;74127;54.228;37.632;2023-11-19T09:09:39;13.3;;;12.7;;
72974;SDS011;74127;54.228;37.632;2023-11-19T09:13:38;12.7;;;12;;
72974;SDS011;74127;54.228;37.632;2023-11-19T09:17:38;12.7;;;12;;
72974;SDS011;74127;54.228;37.632;2023-11-19T09:24:51;15.6;;;14.7;;
72974;SDS011;74127;54.228;37.632;2023-11-19T09:28:51;14.7;;;13.8;;
72974;SDS011;74127;54.228;37.632;2023-11-19T09:32:51;14.7;;;13.8;;
72974;SDS011;74127;54.228;37.632;2023-11-19T09:40:03;12.1;;;11.5;;
72974;SDS011;74127;54.228;37.632;2023-11-19T09:44:02;12;;;11.3;;
72974;SDS011;74127;54.228;37.632;2023-11-19T09:48:02;12;;;11.3;;
72974;SDS011;74127;54.228;37.632;2023-11-19T09:55:32;12.1;;;11.4;;
72974;SDS011;74127;54.228;37.632;2023-11-19T09:59:33;15.7;;;14.4;;
72974;SDS011;74127;54.228;37.632;2023-11-19T10:03:35;15.7;;;14.4;;
72974;SDS011;74127;54.228;37.632;2023-11-19T10:10:04;12.1;;;11.2;;
72974;SDS011;74127;54.228;37.632;2023-11-19T10:14:03;15.6;;;14.4;;
72974;SDS011;74127;54.228;37.632;2023-11-19T10:18:03;15.6;;;14.4;;
72974;SDS011;74127;54.228;37.632;2023-11-19T10:25:45;13.1;;;12.1;;
72974;SDS011;74127;54.228;37.632;2023-11-19T10:29:45;13.6;;;12.4;;
72974;SDS011;74127;54.228;37.632;2023-11-19T10:33:45;13.6;;;12.4;;
72974;SDS011;74127;54.228;37.632;2023-11-19T10:40:46;12.9;;;11.9;;
72974;SDS011;74127;54.228;37.632;2023-11-19T10:44:45;11;;;10.2;;
72974;SDS011;74127;54.228;37.632;2023-11-19T10:48:45;11;;;10.2;;
72974;SDS011;74127;54.228;37.632;2023-11-19T10:55:11;9.4;;;8.7;;
72974;SDS011;74127;54.228;37.632;2023-11-19T10:59:07;9.4;;;8.7;;
72974;SDS011;74127;54.228;37.632;2023-11-19T11:03:15;9.1;;;8.4;;
72974;SDS011;74127;54.228;37.632;2023-11-19T11:07:08;9.4;;;8.6;;
72974;SDS011;74127;54.228;37.632;2023-11-19T11:10:26;9.2;;;8.5;;
72974;SDS011;74127;54.228;37.632;2023-11-19T11:14:25;9.2;;;8.5;;
72974;SDS011;74127;54.228;37.632;2023-11-19T11:18:24;8.1;;;7.4;;
72974;SDS011;74127;54.228;37.632;2023-11-19T11:22:25;6.8;;;6.4;;
72974;SDS011;74127;54.228;37.632;2023-11-19T11:26:09;7;;;6.6;;
72974;SDS011;74127;54.228;37.632;2023-11-19T11:37:50;7.9;;;7.4;;
72974;SDS011;74127;54.228;37.632;2023-11-19T11:40:13;7.7;;;7.2;;
72974;SDS011;74127;54.228;37.632;2023-11-19T11:44:07;7.7;;;7.2;;
72974;SDS011;74127;54.228;37.632;2023-11-19T11:52:07;7.6;;;7.2;;
72974;SDS011;74127;54.228;37.632;2023-11-19T11:57:11;7.9;;;7.4;;
72974;SDS011;74127;54.228;37.632;2023-11-19T12:01:03;6.6;;;6.2;;
72974;SDS011;74127;54.228;37.632;2023-11-19T12:05:03;6.7;;;6.3;;
72974;SDS011;74127;54.228;37.632;2023-11-19T12:10:44;6.9;;;6.4;;
72974;SDS011;74127;54.228;37.632;2023-11-19T12:14:59;6.9;;;6.4;;
72974;SDS011;74127;54.228;37.632;2023-11-19T12:18:34;6.8;;;6.3;;
72974;SDS011;74127;54.228;37.632;2023-11-19T12:22:38;7.3;;;6.8;;
72974;SDS011;74127;54.228;37.632;2023-11-19T12:26:04;8;;;7.3;;
72974;SDS011;74127;54.228;37.632;2023-11-19T12:30:04;8;;;7.3;;
72974;SDS011;74127;54.228;37.632;2023-11-19T12:34:06;8.4;;;7.8;;
72974;SDS011;74127;54.228;37.632;2023-11-19T12:38:04;7.6;;;7.1;;
72974;SDS011;74127;54.228;37.632;2023-11-19T12:40:45;8.8;;;8.2;;
72974;SDS011;74127;54.228;37.632;2023-11-19T12:44:56;8.8;;;8.2;;
72974;SDS011;74127;54.228;37.632;2023-11-19T12:48:44;6.4;;;6;;
72974;SDS011;74127;54.228;37.632;2023-11-19T12:53:05;6.4;;;6;;
72974;SDS011;74127;54.228;37.632;2023-11-19T12:57:46;6.3;;;5.9;;
72974;SDS011;74127;54.228;37.632;2023-11-19T13:01:56;8.4;;;6.5;;
72974;SDS011;74127;54.228;37.632;2023-11-19T13:05:46;8.1;;;7.6;;
72974;SDS011;74127;54.228;37.632;2023-11-19T13:13:08;8.2;;;7.7;;
72974;SDS011;74127;54.228;37.632;2023-11-19T13:16:58;8.3;;;7.7;;
72974;SDS011;74127;54.228;37.632;2023-11-19T13:20:58;8.2;;;7.6;;
72974;SDS011;74127;54.228;37.632;2023-11-19T13:28:06;6.6;;;6.2;;
72974;SDS011;74127;54.228;37.632;2023-11-19T13:32:05;7.1;;;6.7;;
72974;SDS011;74127;54.228;37.632;2023-11-19T13:36:05;7.7;;;7.1;;
72974;SDS011;74127;54.228;37.632;2023-11-19T13:42:20;7.4;;;6.9;;
72974;SDS011;74127;54.228;37.632;2023-11-19T13:46:20;8.5;;;7.9;;
72974;SDS011;74127;54.228;37.632;2023-11-19T13:50:20;8.5;;;7.9;;
72974;SDS011;74127;54.228;37.632;2023-11-19T13:54:20;7.4;;;6.9;;
72974;SDS011;74127;54.228;37.632;2023-11-19T13:57:26;9.1;;;8.4;;
72974;SDS011;74127;54.228;37.632;2023-11-19T14:01:26;10.9;;;9.9;;
72974;SDS011;74127;54.228;37.632;2023-11-19T14:05:26;10.9;;;9.9;;
72974;SDS011;74127;54.228;37.632;2023-11-19T14:09:26;9.1;;;8.2;;
72974;SDS011;74127;54.228;37.632;2023-11-19T14:12:17;8.2;;;7.5;;
72974;SDS011;74127;54.228;37.632;2023-11-19T14:16:16;10.6;;;9.9;;
72974;SDS011;74127;54.228;37.632;2023-11-19T14:20:16;10.6;;;9.9;;
72974;SDS011;74127;54.228;37.632;2023-11-19T14:24:16;9.1;;;7.6;;
72974;SDS011;74127;54.228;37.632;2023-11-19T14:28:46;7.9;;;7.3;;
72974;SDS011;74127;54.228;37.632;2023-11-19T14:32:45;7.6;;;7.1;;
72974;SDS011;74127;54.228;37.632;2023-11-19T14:36:45;9.6;;;8.9;;
72974;SDS011;74127;54.228;37.632;2023-11-19T14:42:56;8.4;;;7.8;;
72974;SDS011;74127;54.228;37.632;2023-11-19T14:46:56;10.2;;;9.4;;
72974;SDS011;74127;54.228;37.632;2023-11-19T14:50:56;10.2;;;9.4;;
72974;SDS011;74127;54.228;37.632;2023-11-19T14:54:56;9.4;;;8.6;;
72974;SDS011;74127;54.228;37.632;2023-11-19T14:58:23;7.6;;;7.1;;
72974;SDS011;74127;54.228;37.632;2023-11-19T15:02:22;9.5;;;8.8;;
72974;SDS011;74127;54.228;37.632;2023-11-19T15:06:23;9.5;;;8.8;;
72974;SDS011;74127;54.228;37.632;2023-11-19T15:10:22;8.7;;;8;;
72974;SDS011;74127;54.228;37.632;2023-11-19T15:13:11;11.5;;;8.7;;
72974;SDS011;74127;54.228;37.632;2023-11-19T15:18:13;10;;;9;;
72974;SDS011;74127;54.228;37.632;2023-11-19T15:22:13;8.9;;;8.2;;
72974;SDS011;74127;54.228;37.632;2023-11-19T15:26:13;8.9;;;8.2;;
72974;SDS011;74127;54.228;37.632;2023-11-19T15:30:13;8.3;;;7.6;;
72974;SDS011;74127;54.228;37.632;2023-11-19T15:34:13;7.8;;;7.2;;
72974;SDS011;74127;54.228;37.632;2023-11-19T15:38:13;9.5;;;8.6;;
72974;SDS011;74127;54.228;37.632;2023-11-19T15:42:13;10.9;;;9.9;;
72974;SDS011;74127;54.228;37.632;2023-11-19T15:46:13;10.9;;;9.9;;
72974;SDS011;74127;54.228;37.632;2023-11-19T15:50:13;22.6;;;11.3;;
72974;SDS011;74127;54.228;37.632;2023-11-19T15:54:13;11.4;;;10.2;;
72974;SDS011;74127;54.228;37.632;2023-11-19T15:58:13;11.2;;;10.1;;
72974;SDS011;74127;54.228;37.632;2023-11-19T16:04:48;11.4;;;8.7;;
72974;SDS011;74127;54.228;37.632;2023-11-19T16:08:48;12.4;;;10.6;;
72974;SDS011;74127;54.228;37.632;2023-11-19T16:12:48;16;;;12.2;;
72974;SDS011;74127;54.228;37.632;2023-11-19T16:16:48;16;;;12.2;;
72974;SDS011;74127;54.228;37.632;2023-11-19T16:19:25;9.8;;;8.9;;
72974;SDS011;74127;54.228;37.632;2023-11-19T16:23:25;15.2;;;11.3;;
72974;SDS011;74127;54.228;37.632;2023-11-19T16:27:25;10.5;;;9.5;;
72974;SDS011;74127;54.228;37.632;2023-11-19T16:31:25;10.5;;;9.5;;
72974;SDS011;74127;54.228;37.632;2023-11-19T16:35:12;11.7;;;10.6;;
72974;SDS011;74127;54.228;37.632;2023-11-19T16:39:12;11.2;;;9.6;;
72974;SDS011;74127;54.228;37.632;2023-11-19T16:43:12;17;;;12;;
72974;SDS011;74127;54.228;37.632;2023-11-19T16:49:32;9.5;;;8.5;;
72974;SDS011;74127;54.228;37.632;2023-11-19T16:53:32;15;;;11.2;;
72974;SDS011;74127;54.228;37.632;2023-11-19T16:57:32;15;;;11.2;;
72974;SDS011;74127;54.228;37.632;2023-11-19T17:01:32;9.7;;;8.8;;
72974;SDS011;74127;54.228;37.632;2023-11-19T17:05:55;12.2;;;9.8;;
72974;SDS011;74127;54.228;37.632;2023-11-19T17:09:55;11.4;;;9.7;;
72974;SDS011;74127;54.228;37.632;2023-11-19T17:13:55;11.6;;;9.7;;
72974;SDS011;74127;54.228;37.632;2023-11-19T17:20:58;9.7;;;8.9;;
72974;SDS011;74127;54.228;37.632;2023-11-19T17:24:58;9.4;;;8.3;;
72974;SDS011;74127;54.228;37.632;2023-11-19T17:28:58;8.2;;;7.4;;
72974;SDS011;74127;54.228;37.632;2023-11-19T17:35:14;9.5;;;8.8;;
72974;SDS011;74127;54.228;37.632;2023-11-19T17:39:14;7.4;;;6.8;;
72974;SDS011;74127;54.228;37.632;2023-11-19T17:43:14;8.6;;;7.8;;
72974;SDS011;74127;54.228;37.632;2023-11-19T17:47:14;8.6;;;7.8;;
72974;SDS011;74127;54.228;37.632;2023-11-19T17:54:38;9.8;;;8.8;;
72974;SDS011;74127;54.228;37.632;2023-11-19T17:58:38;7.4;;;6.9;;
72974;SDS011;74127;54.228;37.632;2023-11-19T18:02:42;7.4;;;6.9;;
72974;SDS011;74127;54.228;37.632;2023-11-19T18:06:38;8.2;;;7.6;;
72974;SDS011;74127;54.228;37.632;2023-11-19T18:10:38;9.1;;;8.4;;
72974;SDS011;74127;54.228;37.632;2023-11-19T18:14:39;7.8;;;7.3;;
72974;SDS011;74127;54.228;37.632;2023-11-19T18:20:48;9.1;;;7.6;;
72974;SDS011;74127;54.228;37.632;2023-11-19T18:24:47;7.5;;;6.9;;
72974;SDS011;74127;54.228;37.632;2023-11-19T18:28:47;7.8;;;7.2;;
72974;SDS011;74127;54.228;37.632;2023-11-19T18:32:47;7.8;;;7.2;;
72974;SDS011;74127;54.228;37.632;2023-11-19T18:36:47;7.6;;;7;;
72974;SDS011;74127;54.228;37.632;2023-11-19T18:40:47;7.3;;;6.7;;
72974;SDS011;74127;54.228;37.632;2023-11-19T18:44:47;8.1;;;7.5;;
72974;SDS011;74127;54.228;37.632;2023-11-19T18:48:47;9.6;;;8.9;;
72974;SDS011;74127;54.228;37.632;2023-11-19T18:52:47;9.6;;;8.9;;
72974;SDS011;74127;54.228;37.632;2023-11-19T18:56:47;10;;;9.2;;
72974;SDS011;74127;54.228;37.632;2023-11-19T19:00:47;8.4;;;7.9;;
72974;SDS011;74127;54.228;37.632;2023-11-19T19:04:47;10.4;;;9.4;;
72974;SDS011;74127;54.228;37.632;2023-11-19T19:08:47;10.4;;;9.4;;
72974;SDS011;74127;54.228;37.632;2023-11-19T19:12:47;9;;;8.2;;
72974;SDS011;74127;54.228;37.632;2023-11-19T19:16:47;8.6;;;8;;
72974;SDS011;74127;54.228;37.632;2023-11-19T19:20:47;7.5;;;6.9;;
72974;SDS011;74127;54.228;37.632;2023-11-19T19:24:47;7.8;;;7;;
72974;SDS011;74127;54.228;37.632;2023-11-19T19:28:47;7.8;;;7;;
72974;SDS011;74127;54.228;37.632;2023-11-19T19:32:47;7.8;;;7.2;;
72974;SDS011;74127;54.228;37.632;2023-11-19T19:36:47;7.7;;;7.2;;
72974;SDS011;74127;54.228;37.632;2023-11-19T19:40:47;9;;;8.3;;
72974;SDS011;74127;54.228;37.632;2023-11-19T19:44:47;9.9;;;9;;
72974;SDS011;74127;54.228;37.632;2023-11-19T19:48:47;9.9;;;9;;
72974;SDS011;74127;54.228;37.632;2023-11-19T19:52:47;7.6;;;7.1;;
72974;SDS011;74127;54.228;37.632;2023-11-19T19:56:47;9.9;;;9.1;;
72974;SDS011;74127;54.228;37.632;2023-11-19T20:00:47;8.3;;;7.4;;
72974;SDS011;74127;54.228;37.632;2023-11-19T20:04:47;9.2;;;8.4;;
72974;SDS011;74127;54.228;37.632;2023-11-19T20:08:47;9.2;;;8.4;;
72974;SDS011;74127;54.228;37.632;2023-11-19T20:12:47;10.3;;;9.4;;
72974;SDS011;74127;54.228;37.632;2023-11-19T20:16:47;11.7;;;10.6;;
72974;SDS011;74127;54.228;37.632;2023-11-19T20:20:47;8.9;;;8.3;;
72974;SDS011;74127;54.228;37.632;2023-11-19T20:24:47;9.7;;;8.8;;
72974;SDS011;74127;54.228;37.632;2023-11-19T20:28:47;9.7;;;8.8;;
72974;SDS011;74127;54.228;37.632;2023-11-19T20:32:47;10.1;;;9.1;;
72974;SDS011;74127;54.228;37.632;2023-11-19T20:36:47;11.9;;;10.2;;
72974;SDS011;74127;54.228;37.632;2023-11-19T20:40:47;9.1;;;8.4;;
72974;SDS011;74127;54.228;37.632;2023-11-19T20:52:44;9.6;;;8.7;;
72974;SDS011;74127;54.228;37.632;2023-11-19T20:56:44;10.3;;;9.4;;
72974;SDS011;74127;54.228;37.632;2023-11-19T21:00:44;9.1;;;8.4;;
72974;SDS011;74127;54.228;37.632;2023-11-19T21:04:44;9.1;;;8.4;;
72974;SDS011;74127;54.228;37.632;2023-11-19T21:08:44;9.6;;;8.9;;
72974;SDS011;74127;54.228;37.632;2023-11-19T21:12:44;10.7;;;9.7;;
72974;SDS011;74127;54.228;37.632;2023-11-19T21:16:44;13.1;;;11.3;;
72974;SDS011;74127;54.228;37.632;2023-11-19T21:20:44;11.1;;;9.9;;
72974;SDS011;74127;54.228;37.632;2023-11-19T21:24:44;11.1;;;9.9;;
72974;SDS011;74127;54.228;37.632;2023-11-19T21:28:44;11.2;;;10.3;;
72974;SDS011;74127;54.228;37.632;2023-11-19T21:32:44;11.7;;;10.6;;
72974;SDS011;74127;54.228;37.632;2023-11-19T21:36:44;9.8;;;9;;
72974;SDS011;74127;54.228;37.632;2023-11-19T21:40:44;10.5;;;9.7;;
72974;SDS011;74127;54.228;37.632;2023-11-19T21:44:44;10.5;;;9.7;;
72974;SDS011;74127;54.228;37.632;2023-11-19T21:48:44;10.2;;;9;;
72974;SDS011;74127;54.228;37.632;2023-11-19T21:52:44;12.9;;;11.5;;
72974;SDS011;74127;54.228;37.632;2023-11-19T21:56:44;12.7;;;10.9;;
72974;SDS011;74127;54.228;37.632;2023-11-19T22:00:44;10;;;9;;
72974;SDS011;74127;54.228;37.632;2023-11-19T22:04:44;10;;;9;;
72974;SDS011;74127;54.228;37.632;2023-11-19T22:08:44;12.4;;;11.3;;
72974;SDS011;74127;54.228;37.632;2023-11-19T22:12:44;12.1;;;10.2;;
72974;SDS011;74127;54.228;37.632;2023-11-19T22:16:44;11;;;10.1;;
72974;SDS011;74127;54.228;37.632;2023-11-19T22:20:44;10.4;;;9.4;;
72974;SDS011;74127;54.228;37.632;2023-11-19T22:24:44;10.4;;;9.4;;
72974;SDS011;74127;54.228;37.632;2023-11-19T22:28:44;10.8;;;9.7;;
72974;SDS011;74127;54.228;37.632;2023-11-19T22:32:44;13;;;11.4;;
72974;SDS011;74127;54.228;37.632;2023-11-19T22:36:44;11.8;;;9.4;;
72974;SDS011;74127;54.228;37.632;2023-11-19T22:40:44;11.8;;;9.4;;
72974;SDS011;74127;54.228;37.632;2023-11-19T22:44:44;14.9;;;10.4;;
72974;SDS011;74127;54.228;37.632;2023-11-19T22:48:44;12.5;;;11.2;;
72974;SDS011;74127;54.228;37.632;2023-11-19T22:52:44;9.7;;;9;;
72974;SDS011;74127;54.228;37.632;2023-11-19T22:56:44;15.7;;;12.3;;
72974;SDS011;74127;54.228;37.632;2023-11-19T23:00:44;15.7;;;12.3;;
72974;SDS011;74127;54.228;37.632;2023-11-19T23:04:44;15.7;;;12.8;;
72974;SDS011;74127;54.228;37.632;2023-11-19T23:08:44;11.8;;;10;;
72974;SDS011;74127;54.228;37.632;2023-11-19T23:12:44;12.2;;;11;;
72974;SDS011;74127;54.228;37.632;2023-11-19T23:16:44;14;;;11.9;;
72974;SDS011;74127;54.228;37.632;2023-11-19T23:20:44;14;;;11.9;;
72974;SDS011;74127;54.228;37.632;2023-11-19T23:24:44;16.4;;;12.4;;
72974;SDS011;74127;54.228;37.632;2023-11-19T23:28:44;15.1;;;12.3;;
72974;SDS011;74127;54.228;37.632;2023-11-19T23:32:44;14.6;;;10.9;;
72974;SDS011;74127;54.228;37.632;2023-11-19T23:36:44;15;;;12.3;;
72974;SDS011;74127;54.228;37.632;2023-11-19T23:40:44;15;;;12.3;;
72974;SDS011;74127;54.228;37.632;2023-11-19T23:44:44;12.3;;;10.7;;
72974;SDS011;74127;54.228;37.632;2023-11-19T23:48:44;19.7;;;13.8;;
72974;SDS011;74127;54.228;37.632;2023-11-19T23:52:44;14.9;;;12.5;;
72974;SDS011;74127;54.228;37.632;2023-11-19T23:56:44;14.9;;;13.2;;
